sensor_id;sensor_type;location;lat;lon;timestamp;P1;durP1;ratioP1;P2;durP2;ratioP2
60030;SDS011;45901;47.600;9.890;2022-07-22T06:44:07;9.70;;;8.63;;
60030;SDS011;45901;47.600;9.890;2022-07-22T06:46:34;13.03;;;9.40;;
60030;SDS011;45901;47.600;9.890;2022-07-22T06:49:01;11.87;;;9.67;;
60030;SDS011;45901;47.600;9.890;2022-07-22T06:51:29;11.83;;;9.17;;
60030;SDS011;45901;47.600;9.890;2022-07-22T06:54:23;15.50;;;9.77;;
60030;SDS011;45901;47.600;9.890;2022-07-22T06:56:50;12.97;;;9.53;;
60030;SDS011;45901;47.600;9.890;2022-07-22T06:59:19;11.83;;;8.40;;
60030;SDS011;45901;47.600;9.890;2022-07-22T07:01:46;12.17;;;8.53;;
60030;SDS011;45901;47.600;9.890;2022-07-22T07:04:13;14.70;;;8.67;;
60030;SDS011;45901;47.600;9.890;2022-07-22T07:06:40;11.20;;;8.17;;
60030;SDS011;45901;47.600;9.890;2022-07-22T07:09:08;10.07;;;7.90;;
60030;SDS011;45901;47.600;9.890;2022-07-22T07:11:35;10.60;;;7.70;;
60030;SDS011;45901;47.600;9.890;2022-07-22T07:14:02;12.57;;;8.00;;
60030;SDS011;45901;47.600;9.890;2022-07-22T07:16:31;16.00;;;7.90;;
60030;SDS011;45901;47.600;9.890;2022-07-22T07:18:58;10.50;;;8.03;;
60030;SDS011;45901;47.600;9.890;2022-07-22T07:25:11;10.73;;;7.50;;
60030;SDS011;45901;47.600;9.890;2022-07-22T07:27:45;11.70;;;7.57;;
60030;SDS011;45901;47.600;9.890;2022-07-22T07:30:24;11.83;;;8.13;;
60030;SDS011;45901;47.600;9.890;2022-07-22T07:37:45;13.10;;;7.67;;
60030;SDS011;45901;47.600;9.890;2022-07-22T07:40:18;9.20;;;7.70;;
60030;SDS011;45901;47.600;9.890;2022-07-22T07:43:23;10.97;;;8.37;;
60030;SDS011;45901;47.600;9.890;2022-07-22T07:46:28;14.23;;;7.67;;
60030;SDS011;45901;47.600;9.890;2022-07-22T07:53:29;12.13;;;7.27;;
60030;SDS011;45901;47.600;9.890;2022-07-22T07:59:56;11.17;;;7.47;;
60030;SDS011;45901;47.600;9.890;2022-07-22T08:02:24;10.07;;;7.50;;
60030;SDS011;45901;47.600;9.890;2022-07-22T08:04:51;10.07;;;7.30;;
60030;SDS011;45901;47.600;9.890;2022-07-22T08:07:18;10.80;;;7.90;;
60030;SDS011;45901;47.600;9.890;2022-07-22T08:09:47;12.33;;;8.40;;
60030;SDS011;45901;47.600;9.890;2022-07-22T08:12:14;10.23;;;7.13;;
60030;SDS011;45901;47.600;9.890;2022-07-22T08:14:41;9.47;;;7.37;;
60030;SDS011;45901;47.600;9.890;2022-07-22T08:17:09;10.37;;;7.90;;
60030;SDS011;45901;47.600;9.890;2022-07-22T08:19:36;11.63;;;8.50;;
60030;SDS011;45901;47.600;9.890;2022-07-22T08:22:03;13.83;;;8.43;;
60030;SDS011;45901;47.600;9.890;2022-07-22T08:24:30;12.80;;;7.90;;
60030;SDS011;45901;47.600;9.890;2022-07-22T08:26:58;11.20;;;7.60;;
60030;SDS011;45901;47.600;9.890;2022-07-22T08:29:27;11.50;;;8.40;;
60030;SDS011;45901;47.600;9.890;2022-07-22T08:31:54;10.77;;;8.10;;
60030;SDS011;45901;47.600;9.890;2022-07-22T08:34:21;10.20;;;7.23;;
60030;SDS011;45901;47.600;9.890;2022-07-22T08:37:01;11.40;;;8.37;;
60030;SDS011;45901;47.600;9.890;2022-07-22T09:00:35;15.00;;;8.15;;
60030;SDS011;45901;47.600;9.890;2022-07-22T09:27:40;11.63;;;7.90;;
60030;SDS011;45901;47.600;9.890;2022-07-22T09:30:37;9.65;;;7.72;;
60030;SDS011;45901;47.600;9.890;2022-07-22T09:33:26;10.50;;;8.23;;
60030;SDS011;45901;47.600;9.890;2022-07-22T09:36:01;11.52;;;8.02;;
60030;SDS011;45901;47.600;9.890;2022-07-22T09:38:49;10.05;;;7.85;;
60030;SDS011;45901;47.600;9.890;2022-07-22T09:48:22;9.30;;;7.55;;
60030;SDS011;45901;47.600;9.890;2022-07-22T09:50:51;15.52;;;7.22;;
60030;SDS011;45901;47.600;9.890;2022-07-22T09:53:22;8.93;;;7.22;;
60030;SDS011;45901;47.600;9.890;2022-07-22T09:55:52;12.57;;;7.85;;
60030;SDS011;45901;47.600;9.890;2022-07-22T09:58:20;8.57;;;7.10;;
60030;SDS011;45901;47.600;9.890;2022-07-22T10:00:49;11.57;;;7.57;;
60030;SDS011;45901;47.600;9.890;2022-07-22T10:03:18;9.93;;;8.15;;
60030;SDS011;45901;47.600;9.890;2022-07-22T10:05:51;11.02;;;7.18;;
60030;SDS011;45901;47.600;9.890;2022-07-22T10:08:20;8.80;;;7.75;;
60030;SDS011;45901;47.600;9.890;2022-07-22T10:10:48;10.35;;;7.38;;
60030;SDS011;45901;47.600;9.890;2022-07-22T10:13:15;9.18;;;7.65;;
60030;SDS011;45901;47.600;9.890;2022-07-22T10:15:45;10.48;;;7.65;;
60030;SDS011;45901;47.600;9.890;2022-07-22T10:18:15;9.13;;;7.53;;
60030;SDS011;45901;47.600;9.890;2022-07-22T10:20:45;10.45;;;7.45;;
60030;SDS011;45901;47.600;9.890;2022-07-22T10:23:13;9.45;;;7.50;;
60030;SDS011;45901;47.600;9.890;2022-07-22T10:25:50;10.05;;;7.55;;
60030;SDS011;45901;47.600;9.890;2022-07-22T10:28:23;9.10;;;7.93;;
60030;SDS011;45901;47.600;9.890;2022-07-22T10:30:53;10.73;;;8.70;;
60030;SDS011;45901;47.600;9.890;2022-07-22T10:33:35;8.45;;;7.55;;
60030;SDS011;45901;47.600;9.890;2022-07-22T10:36:03;11.98;;;7.90;;
60030;SDS011;45901;47.600;9.890;2022-07-22T10:38:31;10.05;;;8.30;;
60030;SDS011;45901;47.600;9.890;2022-07-22T10:41:00;9.15;;;7.63;;
60030;SDS011;45901;47.600;9.890;2022-07-22T10:43:45;8.40;;;7.10;;
60030;SDS011;45901;47.600;9.890;2022-07-22T10:46:13;12.88;;;7.28;;
60030;SDS011;45901;47.600;9.890;2022-07-22T10:48:46;9.80;;;7.78;;
60030;SDS011;45901;47.600;9.890;2022-07-22T10:51:13;9.35;;;7.47;;
60030;SDS011;45901;47.600;9.890;2022-07-22T10:53:43;10.43;;;7.70;;
60030;SDS011;45901;47.600;9.890;2022-07-22T10:56:15;12.02;;;7.53;;
60030;SDS011;45901;47.600;9.890;2022-07-22T10:58:49;10.60;;;7.32;;
60030;SDS011;45901;47.600;9.890;2022-07-22T11:01:35;11.10;;;7.65;;
60030;SDS011;45901;47.600;9.890;2022-07-22T11:04:13;9.75;;;7.47;;
60030;SDS011;45901;47.600;9.890;2022-07-22T11:06:42;12.43;;;8.57;;
60030;SDS011;45901;47.600;9.890;2022-07-22T11:09:11;9.38;;;7.07;;
60030;SDS011;45901;47.600;9.890;2022-07-22T11:11:41;13.35;;;7.55;;
60030;SDS011;45901;47.600;9.890;2022-07-22T11:14:15;10.23;;;7.35;;
60030;SDS011;45901;47.600;9.890;2022-07-22T11:16:52;8.82;;;7.93;;
60030;SDS011;45901;47.600;9.890;2022-07-22T11:19:24;11.07;;;7.60;;
60030;SDS011;45901;47.600;9.890;2022-07-22T11:21:53;11.75;;;7.65;;
60030;SDS011;45901;47.600;9.890;2022-07-22T11:24:23;11.18;;;7.85;;
60030;SDS011;45901;47.600;9.890;2022-07-22T11:26:51;8.43;;;6.95;;
60030;SDS011;45901;47.600;9.890;2022-07-22T11:29:24;9.95;;;7.38;;
60030;SDS011;45901;47.600;9.890;2022-07-22T11:31:55;8.18;;;7.30;;
60030;SDS011;45901;47.600;9.890;2022-07-22T11:34:26;8.07;;;7.20;;
60030;SDS011;45901;47.600;9.890;2022-07-22T11:36:54;9.68;;;7.20;;
60030;SDS011;45901;47.600;9.890;2022-07-22T11:39:23;8.40;;;7.13;;
60030;SDS011;45901;47.600;9.890;2022-07-22T11:41:54;10.50;;;7.88;;
60030;SDS011;45901;47.600;9.890;2022-07-22T11:44:24;10.05;;;7.40;;
60030;SDS011;45901;47.600;9.890;2022-07-22T11:46:54;8.38;;;6.45;;
60030;SDS011;45901;47.600;9.890;2022-07-22T11:49:23;10.27;;;6.88;;
60030;SDS011;45901;47.600;9.890;2022-07-22T11:51:55;9.18;;;7.60;;
60030;SDS011;45901;47.600;9.890;2022-07-22T11:54:23;11.10;;;7.30;;
60030;SDS011;45901;47.600;9.890;2022-07-22T11:56:50;8.23;;;7.03;;
60030;SDS011;45901;47.600;9.890;2022-07-22T11:59:18;9.48;;;7.32;;
60030;SDS011;45901;47.600;9.890;2022-07-22T12:01:46;9.20;;;7.38;;
60030;SDS011;45901;47.600;9.890;2022-07-22T12:04:15;7.95;;;7.10;;
60030;SDS011;45901;47.600;9.890;2022-07-22T12:06:47;7.78;;;6.97;;
60030;SDS011;45901;47.600;9.890;2022-07-22T12:09:16;8.73;;;6.78;;
60030;SDS011;45901;47.600;9.890;2022-07-22T12:11:50;9.10;;;7.07;;
60030;SDS011;45901;47.600;9.890;2022-07-22T12:14:20;9.57;;;7.07;;
60030;SDS011;45901;47.600;9.890;2022-07-22T12:16:53;8.63;;;7.22;;
60030;SDS011;45901;47.600;9.890;2022-07-22T12:19:23;13.80;;;7.93;;
60030;SDS011;45901;47.600;9.890;2022-07-22T12:21:56;10.38;;;7.28;;
60030;SDS011;45901;47.600;9.890;2022-07-22T12:24:29;9.75;;;7.05;;
60030;SDS011;45901;47.600;9.890;2022-07-22T12:27:00;8.48;;;6.93;;
60030;SDS011;45901;47.600;9.890;2022-07-22T12:38:15;9.23;;;7.15;;
60030;SDS011;45901;47.600;9.890;2022-07-22T12:40:51;9.13;;;7.00;;
60030;SDS011;45901;47.600;9.890;2022-07-22T12:43:31;8.65;;;7.03;;
60030;SDS011;45901;47.600;9.890;2022-07-22T12:46:05;10.73;;;6.93;;
60030;SDS011;45901;47.600;9.890;2022-07-22T12:48:32;13.43;;;7.47;;
60030;SDS011;45901;47.600;9.890;2022-07-22T12:51:00;9.90;;;7.07;;
60030;SDS011;45901;47.600;9.890;2022-07-22T12:53:29;12.50;;;6.72;;
60030;SDS011;45901;47.600;9.890;2022-07-22T12:55:58;8.73;;;7.10;;
60030;SDS011;45901;47.600;9.890;2022-07-22T12:58:28;9.38;;;6.90;;
60030;SDS011;45901;47.600;9.890;2022-07-22T13:00:57;8.27;;;6.97;;
60030;SDS011;45901;47.600;9.890;2022-07-22T13:03:29;8.35;;;7.03;;
60030;SDS011;45901;47.600;9.890;2022-07-22T13:05:58;7.32;;;6.30;;
60030;SDS011;45901;47.600;9.890;2022-07-22T13:08:30;7.90;;;6.75;;
60030;SDS011;45901;47.600;9.890;2022-07-22T13:11:02;9.82;;;6.60;;
60030;SDS011;45901;47.600;9.890;2022-07-22T13:13:36;7.85;;;6.43;;
60030;SDS011;45901;47.600;9.890;2022-07-22T13:16:04;10.07;;;6.55;;
60030;SDS011;45901;47.600;9.890;2022-07-22T13:18:32;7.13;;;6.32;;
60030;SDS011;45901;47.600;9.890;2022-07-22T13:21:00;8.82;;;5.65;;
60030;SDS011;45901;47.600;9.890;2022-07-22T13:23:28;8.88;;;6.28;;
60030;SDS011;45901;47.600;9.890;2022-07-22T13:26:00;6.53;;;5.90;;
60030;SDS011;45901;47.600;9.890;2022-07-22T13:28:27;9.95;;;6.72;;
60030;SDS011;45901;47.600;9.890;2022-07-22T13:30:54;9.65;;;6.35;;
60030;SDS011;45901;47.600;9.890;2022-07-22T13:33:21;8.48;;;6.20;;
60030;SDS011;45901;47.600;9.890;2022-07-22T13:35:49;10.18;;;6.90;;
60030;SDS011;45901;47.600;9.890;2022-07-22T13:38:18;11.30;;;6.30;;
60030;SDS011;45901;47.600;9.890;2022-07-22T13:40:47;9.15;;;7.45;;
60030;SDS011;45901;47.600;9.890;2022-07-22T13:43:17;12.27;;;6.95;;
60030;SDS011;45901;47.600;9.890;2022-07-22T13:45:48;7.78;;;6.68;;
60030;SDS011;45901;47.600;9.890;2022-07-22T13:48:16;11.20;;;6.85;;
60030;SDS011;45901;47.600;9.890;2022-07-22T13:50:50;9.75;;;7.07;;
60030;SDS011;45901;47.600;9.890;2022-07-22T13:53:32;7.97;;;7.00;;
60030;SDS011;45901;47.600;9.890;2022-07-22T13:56:12;8.43;;;6.55;;
60030;SDS011;45901;47.600;9.890;2022-07-22T13:58:46;8.77;;;7.10;;
60030;SDS011;45901;47.600;9.890;2022-07-22T14:01:14;7.85;;;5.95;;
60030;SDS011;45901;47.600;9.890;2022-07-22T14:22:02;7.80;;;6.30;;
60030;SDS011;45901;47.600;9.890;2022-07-22T14:25:20;7.40;;;6.30;;
60030;SDS011;45901;47.600;9.890;2022-07-22T14:35:27;6.97;;;5.95;;
60030;SDS011;45901;47.600;9.890;2022-07-22T14:38:15;10.63;;;5.78;;
60030;SDS011;45901;47.600;9.890;2022-07-22T14:41:25;8.23;;;5.25;;
60030;SDS011;45901;47.600;9.890;2022-07-22T14:43:52;8.65;;;6.15;;
60030;SDS011;45901;47.600;9.890;2022-07-22T14:54:23;6.38;;;5.57;;
60030;SDS011;45901;47.600;9.890;2022-07-22T14:57:00;6.38;;;5.05;;
60030;SDS011;45901;47.600;9.890;2022-07-22T14:59:27;10.27;;;5.95;;
60030;SDS011;45901;47.600;9.890;2022-07-22T15:01:55;10.55;;;5.93;;
60030;SDS011;45901;47.600;9.890;2022-07-22T15:04:22;11.57;;;6.00;;
60030;SDS011;45901;47.600;9.890;2022-07-22T15:06:52;7.10;;;5.78;;
60030;SDS011;45901;47.600;9.890;2022-07-22T15:09:42;7.00;;;5.90;;
60030;SDS011;45901;47.600;9.890;2022-07-22T15:12:15;8.30;;;5.32;;
60030;SDS011;45901;47.600;9.890;2022-07-22T15:14:42;8.13;;;5.55;;
60030;SDS011;45901;47.600;9.890;2022-07-22T15:17:15;8.98;;;5.75;;
60030;SDS011;45901;47.600;9.890;2022-07-22T15:19:43;8.45;;;5.57;;
60030;SDS011;45901;47.600;9.890;2022-07-22T15:22:13;9.70;;;5.65;;
60030;SDS011;45901;47.600;9.890;2022-07-22T15:25:04;8.02;;;6.03;;
60030;SDS011;45901;47.600;9.890;2022-07-22T15:27:35;7.53;;;5.38;;
60030;SDS011;45901;47.600;9.890;2022-07-22T15:38:43;6.38;;;5.47;;
60030;SDS011;45901;47.600;9.890;2022-07-22T15:41:43;8.88;;;5.45;;
60030;SDS011;45901;47.600;9.890;2022-07-22T15:44:13;8.13;;;5.30;;
60030;SDS011;45901;47.600;9.890;2022-07-22T15:54:49;6.75;;;5.22;;
60030;SDS011;45901;47.600;9.890;2022-07-22T16:01:57;6.05;;;5.07;;
60030;SDS011;45901;47.600;9.890;2022-07-22T16:04:25;6.70;;;5.60;;
60030;SDS011;45901;47.600;9.890;2022-07-22T16:06:52;5.60;;;5.00;;
60030;SDS011;45901;47.600;9.890;2022-07-22T16:09:19;6.32;;;5.28;;
60030;SDS011;45901;47.600;9.890;2022-07-22T16:11:47;8.20;;;5.72;;
60030;SDS011;45901;47.600;9.890;2022-07-22T16:18:22;8.35;;;5.63;;
60030;SDS011;45901;47.600;9.890;2022-07-22T16:20:56;8.77;;;5.68;;
60030;SDS011;45901;47.600;9.890;2022-07-22T16:23:23;7.07;;;5.70;;
60030;SDS011;45901;47.600;9.890;2022-07-22T16:25:50;8.93;;;6.00;;
60030;SDS011;45901;47.600;9.890;2022-07-22T16:28:18;6.95;;;6.25;;
60030;SDS011;45901;47.600;9.890;2022-07-22T16:30:45;8.48;;;6.00;;
60030;SDS011;45901;47.600;9.890;2022-07-22T16:33:12;8.98;;;5.80;;
60030;SDS011;45901;47.600;9.890;2022-07-22T16:35:41;9.85;;;6.45;;
60030;SDS011;45901;47.600;9.890;2022-07-22T16:38:08;7.57;;;5.97;;
60030;SDS011;45901;47.600;9.890;2022-07-22T16:40:35;6.35;;;5.65;;
60030;SDS011;45901;47.600;9.890;2022-07-22T16:43:03;7.30;;;5.85;;
60030;SDS011;45901;47.600;9.890;2022-07-22T16:45:30;6.72;;;5.53;;
60030;SDS011;45901;47.600;9.890;2022-07-22T16:47:57;10.32;;;5.93;;
60030;SDS011;45901;47.600;9.890;2022-07-22T16:50:24;6.63;;;5.63;;
60030;SDS011;45901;47.600;9.890;2022-07-22T16:52:54;8.38;;;5.80;;
60030;SDS011;45901;47.600;9.890;2022-07-22T16:55:22;8.25;;;5.88;;
60030;SDS011;45901;47.600;9.890;2022-07-22T16:58:01;6.80;;;5.60;;
60030;SDS011;45901;47.600;9.890;2022-07-22T17:00:29;7.60;;;6.05;;
60030;SDS011;45901;47.600;9.890;2022-07-22T17:02:56;6.95;;;5.40;;
60030;SDS011;45901;47.600;9.890;2022-07-22T17:05:23;7.05;;;5.50;;
60030;SDS011;45901;47.600;9.890;2022-07-22T17:07:50;7.80;;;5.80;;
60030;SDS011;45901;47.600;9.890;2022-07-22T17:10:19;7.90;;;5.90;;
60030;SDS011;45901;47.600;9.890;2022-07-22T17:12:46;8.32;;;6.88;;
60030;SDS011;45901;47.600;9.890;2022-07-22T17:15:14;9.27;;;6.47;;
60030;SDS011;45901;47.600;9.890;2022-07-22T17:17:41;12.60;;;6.28;;
60030;SDS011;45901;47.600;9.890;2022-07-22T17:20:09;10.48;;;7.65;;
60030;SDS011;45901;47.600;9.890;2022-07-22T17:22:38;9.43;;;6.00;;
60030;SDS011;45901;47.600;9.890;2022-07-22T17:25:06;9.27;;;5.88;;
60030;SDS011;45901;47.600;9.890;2022-07-22T17:27:35;6.57;;;5.78;;
60030;SDS011;45901;47.600;9.890;2022-07-22T17:30:03;7.45;;;5.53;;
60030;SDS011;45901;47.600;9.890;2022-07-22T17:32:32;10.00;;;5.70;;
60030;SDS011;45901;47.600;9.890;2022-07-22T17:34:59;10.27;;;6.05;;
60030;SDS011;45901;47.600;9.890;2022-07-22T17:37:26;9.32;;;6.60;;
60030;SDS011;45901;47.600;9.890;2022-07-22T17:39:53;7.20;;;6.22;;
60030;SDS011;45901;47.600;9.890;2022-07-22T17:42:21;7.85;;;6.30;;
60030;SDS011;45901;47.600;9.890;2022-07-22T17:44:49;6.55;;;5.88;;
60030;SDS011;45901;47.600;9.890;2022-07-22T17:47:17;7.38;;;6.38;;
60030;SDS011;45901;47.600;9.890;2022-07-22T17:53:08;10.68;;;6.63;;
60030;SDS011;45901;47.600;9.890;2022-07-22T17:55:39;9.63;;;6.45;;
60030;SDS011;45901;47.600;9.890;2022-07-22T17:58:07;9.32;;;6.20;;
60030;SDS011;45901;47.600;9.890;2022-07-22T18:03:43;8.30;;;7.13;;
60030;SDS011;45901;47.600;9.890;2022-07-22T18:06:10;8.88;;;6.90;;
60030;SDS011;45901;47.600;9.890;2022-07-22T18:08:41;7.15;;;6.18;;
60030;SDS011;45901;47.600;9.890;2022-07-22T18:18:32;7.35;;;6.50;;
60030;SDS011;45901;47.600;9.890;2022-07-22T18:28:03;8.27;;;6.78;;
60030;SDS011;45901;47.600;9.890;2022-07-22T18:30:32;12.65;;;6.95;;
60030;SDS011;45901;47.600;9.890;2022-07-22T18:32:59;8.15;;;6.25;;
60030;SDS011;45901;47.600;9.890;2022-07-22T18:35:29;10.18;;;7.25;;
60030;SDS011;45901;47.600;9.890;2022-07-22T18:43:48;8.35;;;7.50;;
60030;SDS011;45901;47.600;9.890;2022-07-22T18:46:16;8.02;;;7.22;;
60030;SDS011;45901;47.600;9.890;2022-07-22T18:48:52;12.10;;;7.30;;
60030;SDS011;45901;47.600;9.890;2022-07-22T18:51:24;8.38;;;7.35;;
60030;SDS011;45901;47.600;9.890;2022-07-22T18:53:51;9.32;;;7.07;;
60030;SDS011;45901;47.600;9.890;2022-07-22T18:56:18;10.43;;;6.95;;
60030;SDS011;45901;47.600;9.890;2022-07-22T18:58:46;7.95;;;6.82;;
60030;SDS011;45901;47.600;9.890;2022-07-22T19:04:24;10.02;;;6.57;;
60030;SDS011;45901;47.600;9.890;2022-07-22T19:06:53;9.40;;;6.55;;
60030;SDS011;45901;47.600;9.890;2022-07-22T19:09:20;11.90;;;7.47;;
60030;SDS011;45901;47.600;9.890;2022-07-22T19:11:47;9.82;;;7.97;;
60030;SDS011;45901;47.600;9.890;2022-07-22T19:14:15;9.30;;;6.97;;
60030;SDS011;45901;47.600;9.890;2022-07-22T19:16:43;8.88;;;6.90;;
60030;SDS011;45901;47.600;9.890;2022-07-22T19:23:15;8.57;;;7.13;;
60030;SDS011;45901;47.600;9.890;2022-07-22T19:25:43;13.73;;;7.57;;
60030;SDS011;45901;47.600;9.890;2022-07-22T19:28:11;8.40;;;7.13;;
60030;SDS011;45901;47.600;9.890;2022-07-22T19:30:38;11.10;;;7.32;;
60030;SDS011;45901;47.600;9.890;2022-07-22T19:33:12;10.25;;;8.20;;
60030;SDS011;45901;47.600;9.890;2022-07-22T19:35:48;11.65;;;7.78;;
60030;SDS011;45901;47.600;9.890;2022-07-22T19:38:54;8.02;;;6.88;;
60030;SDS011;45901;47.600;9.890;2022-07-22T19:41:22;10.57;;;7.57;;
60030;SDS011;45901;47.600;9.890;2022-07-22T20:04:08;10.73;;;8.48;;
60030;SDS011;45901;47.600;9.890;2022-07-22T20:11:08;9.10;;;7.97;;
60030;SDS011;45901;47.600;9.890;2022-07-22T20:14:19;10.18;;;8.48;;
60030;SDS011;45901;47.600;9.890;2022-07-22T20:16:46;13.80;;;8.77;;
60030;SDS011;45901;47.600;9.890;2022-07-22T20:19:24;12.30;;;8.13;;
60030;SDS011;45901;47.600;9.890;2022-07-22T20:21:52;10.30;;;8.40;;
60030;SDS011;45901;47.600;9.890;2022-07-22T20:24:19;12.45;;;8.20;;
60030;SDS011;45901;47.600;9.890;2022-07-22T20:26:46;12.63;;;8.30;;
60030;SDS011;45901;47.600;9.890;2022-07-22T20:29:13;8.85;;;7.93;;
60030;SDS011;45901;47.600;9.890;2022-07-22T20:31:47;11.02;;;8.27;;
60030;SDS011;45901;47.600;9.890;2022-07-22T20:34:17;9.95;;;8.25;;
60030;SDS011;45901;47.600;9.890;2022-07-22T20:36:45;10.20;;;8.23;;
60030;SDS011;45901;47.600;9.890;2022-07-22T20:39:12;11.20;;;8.15;;
60030;SDS011;45901;47.600;9.890;2022-07-22T20:41:40;13.40;;;8.55;;
60030;SDS011;45901;47.600;9.890;2022-07-22T20:44:07;9.35;;;8.10;;
60030;SDS011;45901;47.600;9.890;2022-07-22T20:46:34;12.45;;;8.57;;
60030;SDS011;45901;47.600;9.890;2022-07-22T20:49:01;19.85;;;13.90;;
60030;SDS011;45901;47.600;9.890;2022-07-22T20:51:30;16.45;;;9.45;;
60030;SDS011;45901;47.600;9.890;2022-07-22T20:53:57;12.90;;;9.23;;
60030;SDS011;45901;47.600;9.890;2022-07-22T20:56:25;12.65;;;10.52;;
60030;SDS011;45901;47.600;9.890;2022-07-22T20:58:52;17.23;;;11.35;;
60030;SDS011;45901;47.600;9.890;2022-07-22T21:01:20;11.55;;;9.15;;
60030;SDS011;45901;47.600;9.890;2022-07-22T21:03:47;9.20;;;8.10;;
60030;SDS011;45901;47.600;9.890;2022-07-22T21:06:14;13.15;;;8.10;;
60030;SDS011;45901;47.600;9.890;2022-07-22T21:08:49;9.35;;;8.40;;
60030;SDS011;45901;47.600;9.890;2022-07-22T21:11:17;13.73;;;9.02;;
60030;SDS011;45901;47.600;9.890;2022-07-22T21:13:44;10.98;;;8.45;;
60030;SDS011;45901;47.600;9.890;2022-07-22T21:16:13;12.43;;;8.30;;
60030;SDS011;45901;47.600;9.890;2022-07-22T21:18:40;11.98;;;8.57;;
60030;SDS011;45901;47.600;9.890;2022-07-22T21:21:07;12.55;;;8.32;;
60030;SDS011;45901;47.600;9.890;2022-07-22T21:23:35;12.55;;;8.55;;
60030;SDS011;45901;47.600;9.890;2022-07-22T21:26:08;12.07;;;8.05;;
60030;SDS011;45901;47.600;9.890;2022-07-22T21:28:35;11.90;;;8.32;;
60030;SDS011;45901;47.600;9.890;2022-07-22T21:31:03;9.65;;;8.38;;
60030;SDS011;45901;47.600;9.890;2022-07-22T21:33:30;10.23;;;7.57;;
60030;SDS011;45901;47.600;9.890;2022-07-22T21:35:57;8.98;;;7.57;;
60030;SDS011;45901;47.600;9.890;2022-07-22T21:38:25;9.05;;;7.57;;
60030;SDS011;45901;47.600;9.890;2022-07-22T21:40:52;13.13;;;8.27;;
60030;SDS011;45901;47.600;9.890;2022-07-22T21:43:20;10.55;;;7.63;;
60030;SDS011;45901;47.600;9.890;2022-07-22T21:45:47;9.52;;;7.50;;
60030;SDS011;45901;47.600;9.890;2022-07-22T21:48:17;10.32;;;7.85;;
60030;SDS011;45901;47.600;9.890;2022-07-22T21:50:45;12.27;;;7.15;;
60030;SDS011;45901;47.600;9.890;2022-07-22T21:53:13;12.50;;;7.70;;
60030;SDS011;45901;47.600;9.890;2022-07-22T21:55:40;9.93;;;7.55;;
60030;SDS011;45901;47.600;9.890;2022-07-22T21:58:29;8.57;;;7.35;;
60030;SDS011;45901;47.600;9.890;2022-07-22T22:00:57;10.45;;;7.35;;
60030;SDS011;45901;47.600;9.890;2022-07-22T22:03:26;8.68;;;7.78;;
60030;SDS011;45901;47.600;9.890;2022-07-22T22:05:56;12.43;;;8.18;;
60030;SDS011;45901;47.600;9.890;2022-07-22T22:08:24;9.65;;;8.63;;
60030;SDS011;45901;47.600;9.890;2022-07-22T22:10:51;9.98;;;8.23;;
60030;SDS011;45901;47.600;9.890;2022-07-22T22:13:19;14.88;;;8.00;;
60030;SDS011;45901;47.600;9.890;2022-07-22T22:15:47;8.32;;;7.47;;
60030;SDS011;45901;47.600;9.890;2022-07-22T22:18:16;11.75;;;7.68;;
60030;SDS011;45901;47.600;9.890;2022-07-22T22:20:44;10.60;;;7.80;;
60030;SDS011;45901;47.600;9.890;2022-07-22T22:23:14;10.93;;;7.22;;
60030;SDS011;45901;47.600;9.890;2022-07-22T22:25:41;11.98;;;9.23;;
60030;SDS011;45901;47.600;9.890;2022-07-22T22:28:08;9.25;;;7.57;;
60030;SDS011;45901;47.600;9.890;2022-07-22T22:30:36;8.93;;;7.45;;
60030;SDS011;45901;47.600;9.890;2022-07-22T22:33:06;11.68;;;8.32;;
60030;SDS011;45901;47.600;9.890;2022-07-22T22:35:33;13.80;;;8.13;;
60030;SDS011;45901;47.600;9.890;2022-07-22T22:38:02;10.57;;;7.40;;
60030;SDS011;45901;47.600;9.890;2022-07-22T22:40:29;10.50;;;8.10;;
60030;SDS011;45901;47.600;9.890;2022-07-22T22:42:57;10.60;;;7.90;;
60030;SDS011;45901;47.600;9.890;2022-07-22T22:45:30;9.02;;;7.97;;
60030;SDS011;45901;47.600;9.890;2022-07-22T22:47:57;9.52;;;7.82;;
60030;SDS011;45901;47.600;9.890;2022-07-22T22:50:30;10.32;;;8.15;;
60030;SDS011;45901;47.600;9.890;2022-07-22T22:52:57;12.18;;;8.75;;
60030;SDS011;45901;47.600;9.890;2022-07-22T22:55:25;10.75;;;7.72;;
60030;SDS011;45901;47.600;9.890;2022-07-22T22:57:52;9.30;;;6.93;;
60030;SDS011;45901;47.600;9.890;2022-07-22T23:00:21;9.80;;;7.28;;
60030;SDS011;45901;47.600;9.890;2022-07-22T23:02:50;10.23;;;7.70;;
60030;SDS011;45901;47.600;9.890;2022-07-22T23:05:17;10.60;;;7.07;;
60030;SDS011;45901;47.600;9.890;2022-07-22T23:07:46;15.75;;;7.20;;
60030;SDS011;45901;47.600;9.890;2022-07-22T23:10:14;8.57;;;7.63;;
60030;SDS011;45901;47.600;9.890;2022-07-22T23:12:41;10.77;;;8.00;;
60030;SDS011;45901;47.600;9.890;2022-07-22T23:15:08;9.77;;;6.90;;
60030;SDS011;45901;47.600;9.890;2022-07-22T23:17:35;10.02;;;7.22;;
60030;SDS011;45901;47.600;9.890;2022-07-22T23:20:03;14.93;;;7.30;;
60030;SDS011;45901;47.600;9.890;2022-07-22T23:22:33;10.75;;;7.85;;
60030;SDS011;45901;47.600;9.890;2022-07-22T23:25:01;9.50;;;7.90;;
60030;SDS011;45901;47.600;9.890;2022-07-22T23:27:29;8.40;;;6.63;;
60030;SDS011;45901;47.600;9.890;2022-07-22T23:29:57;8.37;;;7.10;;
60030;SDS011;45901;47.600;9.890;2022-07-22T23:32:25;8.77;;;7.13;;
60030;SDS011;45901;47.600;9.890;2022-07-22T23:34:52;8.17;;;6.90;;
60030;SDS011;45901;47.600;9.890;2022-07-22T23:37:19;8.70;;;7.03;;
60030;SDS011;45901;47.600;9.890;2022-07-22T23:39:46;9.30;;;7.10;;
60030;SDS011;45901;47.600;9.890;2022-07-22T23:42:15;12.77;;;7.60;;
60030;SDS011;45901;47.600;9.890;2022-07-22T23:44:42;10.23;;;8.13;;
60030;SDS011;45901;47.600;9.890;2022-07-22T23:47:09;9.93;;;7.27;;
60030;SDS011;45901;47.600;9.890;2022-07-22T23:49:36;8.77;;;6.70;;
60030;SDS011;45901;47.600;9.890;2022-07-22T23:52:03;10.50;;;7.30;;
60030;SDS011;45901;47.600;9.890;2022-07-22T23:54:31;12.13;;;7.23;;
60030;SDS011;45901;47.600;9.890;2022-07-22T23:56:58;10.00;;;7.00;;
60030;SDS011;45901;47.600;9.890;2022-07-22T23:59:26;8.87;;;6.30;;
